Lyman, Wyoming
Current Conditions -  °F | °C
As of 7:35 AM on Friday 31 Oct 2014 (Local Time) from KFBR Reporting Station
Clear Clear  
Wind Chill: 37°   Ceiling: Unl
Heat Index: 37°   Visibility: NA
Dew Point: 26°   Wind: 0mph
Humidity: 65%   Direction: NA
Pressure: 30.2"   Gusts: NA
Location:  41.33°N, 110.29°W
Report Text: KFBR 311335Z AUTO 00000KT CLR 03/M03 A3020 RMK AO2 T00291031 PWINO
Loading
Personal Weather Stations






























Interactive Weather Map
Tropical Storm Tracking
New forecast layout! Learn more

10-Day Weather Forecast

Advertisements
Track Severe Weather on mobile